createdAt,value
2019-06-20T00:00:01.866Z,0.00
2019-06-20T00:01:01.866Z,0.00
2019-06-20T00:02:01.933Z,0.00
2019-06-20T00:03:01.943Z,0.00
2019-06-20T00:04:01.852Z,0.00
2019-06-20T00:05:01.973Z,0.00
2019-06-20T00:06:01.779Z,0.00
2019-06-20T00:07:01.817Z,0.00
2019-06-20T00:08:01.779Z,0.00
2019-06-20T00:09:01.877Z,0.00
2019-06-20T00:10:01.962Z,0.00
2019-06-20T00:11:01.764Z,0.00
2019-06-20T00:12:01.760Z,0.00
2019-06-20T00:13:01.761Z,0.00
2019-06-20T00:14:01.747Z,0.00
2019-06-20T00:15:01.804Z,0.00
2019-06-20T00:16:01.664Z,0.00
2019-06-20T00:17:01.661Z,0.00
2019-06-20T00:18:01.720Z,0.00
2019-06-20T00:19:01.653Z,0.00
2019-06-20T00:20:01.690Z,0.00
2019-06-20T00:21:01.761Z,0.00
2019-06-20T00:22:01.656Z,0.00
2019-06-20T00:23:01.657Z,0.00
2019-06-20T00:24:01.638Z,0.00
2019-06-20T00:25:02.959Z,0.00
2019-06-20T00:26:01.597Z,0.00
2019-06-20T00:27:01.635Z,0.00
2019-06-20T00:28:01.597Z,0.00
2019-06-20T00:29:01.588Z,0.00
2019-06-20T00:30:01.560Z,0.00
2019-06-20T00:31:01.567Z,0.00
2019-06-20T00:32:01.569Z,0.00
2019-06-20T00:33:01.619Z,0.00
2019-06-20T00:34:01.519Z,0.00
2019-06-20T00:35:01.472Z,0.00
2019-06-20T00:36:01.516Z,0.00
2019-06-20T00:37:01.482Z,0.00
2019-06-20T00:38:01.495Z,0.00
2019-06-20T00:39:01.581Z,0.00
2019-06-20T00:40:01.479Z,0.00
2019-06-20T00:41:01.459Z,0.00
2019-06-20T00:42:01.483Z,0.00
2019-06-20T00:43:16.426Z,0.00
2019-06-20T00:44:02.496Z,0.00
2019-06-20T00:45:01.430Z,0.00
2019-06-20T00:46:01.404Z,0.00
2019-06-20T00:47:01.402Z,0.00
2019-06-20T00:48:01.363Z,0.00
2019-06-20T00:49:01.346Z,0.00
2019-06-20T00:50:01.486Z,0.00
2019-06-20T00:51:01.341Z,0.00
2019-06-20T00:52:01.376Z,0.00
2019-06-20T00:53:01.284Z,0.00
2019-06-20T00:54:01.323Z,0.00
2019-06-20T00:55:01.307Z,0.00
2019-06-20T00:56:01.463Z,0.00
2019-06-20T00:57:01.238Z,0.00
2019-06-20T00:58:01.280Z,0.00
2019-06-20T00:59:01.245Z,0.00
2019-06-20T01:00:01.245Z,0.00
2019-06-20T01:01:01.247Z,0.00
2019-06-20T01:02:01.283Z,0.00
2019-06-20T01:03:01.195Z,0.00
2019-06-20T01:04:01.170Z,0.00
2019-06-20T01:05:01.226Z,0.00
2019-06-20T01:06:01.162Z,0.00
2019-06-20T01:07:01.136Z,0.00
2019-06-20T01:08:01.494Z,0.00
2019-06-20T01:09:01.145Z,0.00
2019-06-20T01:10:01.200Z,0.00
2019-06-20T01:11:01.135Z,0.00
2019-06-20T01:12:01.140Z,0.00
2019-06-20T01:13:01.133Z,0.00
2019-06-20T01:14:01.189Z,0.00
2019-06-20T01:15:01.114Z,0.00
2019-06-20T01:16:01.102Z,0.00
2019-06-20T01:17:01.030Z,0.00
2019-06-20T01:18:01.053Z,0.00
2019-06-20T01:19:01.028Z,0.00
2019-06-20T01:20:01.131Z,0.00
2019-06-20T01:21:01.037Z,0.00
2019-06-20T01:22:01.024Z,0.00
2019-06-20T01:23:01.034Z,0.00
2019-06-20T01:24:01.019Z,0.00
2019-06-20T01:25:01.009Z,0.00
2019-06-20T01:26:01.068Z,0.00
2019-06-20T01:27:01.017Z,0.00
2019-06-20T01:28:00.982Z,0.00
2019-06-20T01:29:00.999Z,0.00
2019-06-20T01:30:00.947Z,0.00
2019-06-20T01:31:00.919Z,0.00
2019-06-20T01:32:01.099Z,0.00
2019-06-20T01:33:00.867Z,0.00
2019-06-20T01:34:00.907Z,0.00
2019-06-20T01:35:00.873Z,0.00
2019-06-20T01:36:00.849Z,0.00
2019-06-20T01:37:00.869Z,0.00
2019-06-20T01:38:00.980Z,0.00
2019-06-20T01:39:00.839Z,0.00
2019-06-20T01:40:00.882Z,0.00
2019-06-20T01:41:00.858Z,0.00
2019-06-20T01:42:00.801Z,0.00
2019-06-20T01:43:00.812Z,0.00
2019-06-20T01:44:00.870Z,0.00
2019-06-20T01:45:00.792Z,0.00
2019-06-20T01:46:00.758Z,0.00
2019-06-20T01:47:00.790Z,0.00
2019-06-20T01:48:00.759Z,0.00
2019-06-20T01:49:00.756Z,0.00
2019-06-20T01:50:00.848Z,0.00
2019-06-20T01:51:00.733Z,0.00
2019-06-20T01:52:00.737Z,0.00
2019-06-20T01:53:00.703Z,0.00
2019-06-20T01:54:00.649Z,0.00
2019-06-20T01:55:00.658Z,0.00
2019-06-20T01:56:00.756Z,0.00
2019-06-20T01:57:00.650Z,0.00
2019-06-20T01:58:00.600Z,0.00
2019-06-20T01:59:00.630Z,0.00
2019-06-20T02:00:00.622Z,0.00
2019-06-20T02:01:00.636Z,0.00
2019-06-20T02:02:00.705Z,0.00
2019-06-20T02:03:00.582Z,0.00
2019-06-20T02:04:00.583Z,0.00
2019-06-20T02:05:00.567Z,0.00
2019-06-20T02:06:00.584Z,0.00
2019-06-20T02:07:00.569Z,0.00
2019-06-20T02:08:04.151Z,0.00
2019-06-20T02:09:00.519Z,0.00
2019-06-20T02:10:00.527Z,0.00
2019-06-20T02:11:00.463Z,0.00
2019-06-20T02:12:00.504Z,0.00
2019-06-20T02:13:00.431Z,0.00
2019-06-20T02:14:07.198Z,0.00
2019-06-20T02:15:01.562Z,0.00
2019-06-20T02:16:00.462Z,0.00
2019-06-20T02:17:00.457Z,0.00
2019-06-20T02:18:00.468Z,0.00
2019-06-20T02:19:00.370Z,0.00
2019-06-20T02:20:00.583Z,0.00
2019-06-20T02:21:00.377Z,0.00
2019-06-20T02:22:00.398Z,0.00
2019-06-20T02:23:00.352Z,0.00
2019-06-20T02:24:00.327Z,0.00
2019-06-20T02:25:00.341Z,0.00
2019-06-20T02:26:00.473Z,0.00
2019-06-20T02:27:00.342Z,0.00
2019-06-20T02:28:00.302Z,0.00
2019-06-20T02:29:00.316Z,0.00
2019-06-20T02:30:00.282Z,0.00
2019-06-20T02:31:00.293Z,0.00
2019-06-20T02:32:00.373Z,4.00
2019-06-20T02:33:00.273Z,4.00
2019-06-20T02:34:00.203Z,0.00
2019-06-20T02:35:00.241Z,4.00
2019-06-20T02:36:00.320Z,4.00
2019-06-20T02:37:00.204Z,4.00
2019-06-20T02:38:00.346Z,4.00
2019-06-20T02:39:00.189Z,4.00
2019-06-20T02:40:00.215Z,8.00
2019-06-20T02:41:00.200Z,8.00
2019-06-20T02:42:00.177Z,8.00
2019-06-20T02:43:00.167Z,12.00
2019-06-20T02:44:00.246Z,12.00
2019-06-20T02:45:00.143Z,16.00
2019-06-20T02:46:00.155Z,16.00
2019-06-20T02:47:00.144Z,20.00
2019-06-20T02:48:00.103Z,20.00
2019-06-20T02:49:00.049Z,20.00
2019-06-20T02:50:00.166Z,24.00
2019-06-20T02:51:00.094Z,24.00
2019-06-20T02:52:00.051Z,28.00
2019-06-20T02:53:00.057Z,36.00
2019-06-20T02:54:00.001Z,36.00
2019-06-20T02:55:00.005Z,40.00
2019-06-20T02:56:00.103Z,44.00
2019-06-20T02:57:00.046Z,44.00
2019-06-20T02:57:59.948Z,48.00
2019-06-20T02:58:59.977Z,56.00
2019-06-20T02:59:59.980Z,56.00
2019-06-20T03:00:59.961Z,64.00
2019-06-20T03:02:00.020Z,68.00
2019-06-20T03:02:59.946Z,72.00
2019-06-20T03:03:59.942Z,80.00
2019-06-20T03:04:59.917Z,84.00
2019-06-20T03:05:59.913Z,88.00
2019-06-20T03:06:59.856Z,96.00
2019-06-20T03:07:59.977Z,100.00
2019-06-20T03:08:59.886Z,104.00
2019-06-20T03:09:59.846Z,112.00
2019-06-20T03:10:59.848Z,116.00
2019-06-20T03:11:59.848Z,120.00
2019-06-20T03:12:59.847Z,124.00
2019-06-20T03:13:59.888Z,128.00
2019-06-20T03:14:59.810Z,132.00
2019-06-20T03:15:59.834Z,140.00
2019-06-20T03:16:59.868Z,140.00
2019-06-20T03:17:59.778Z,124.00
2019-06-20T03:18:59.749Z,160.00
2019-06-20T03:19:59.788Z,164.00
2019-06-20T03:20:59.767Z,176.00
2019-06-20T03:21:59.685Z,184.00
2019-06-20T03:22:59.709Z,188.00
2019-06-20T03:23:59.741Z,200.00
2019-06-20T03:24:59.686Z,208.00
2019-06-20T03:25:59.769Z,220.00
2019-06-20T03:26:59.724Z,232.00
2019-06-20T03:27:59.671Z,236.00
2019-06-20T03:28:59.656Z,248.00
2019-06-20T03:29:59.655Z,248.00
2019-06-20T03:30:59.650Z,248.00
2019-06-20T03:31:59.707Z,256.00
2019-06-20T03:32:59.629Z,260.00
2019-06-20T03:33:59.557Z,280.00
2019-06-20T03:34:59.609Z,276.00
2019-06-20T03:35:59.614Z,296.00
2019-06-20T03:36:59.585Z,304.00
2019-06-20T03:37:59.642Z,316.00
2019-06-20T03:38:59.610Z,328.00
2019-06-20T03:39:59.552Z,336.00
2019-06-20T03:40:59.536Z,344.00
2019-06-20T03:41:59.536Z,356.00
2019-06-20T03:42:59.498Z,368.00
2019-06-20T03:43:59.592Z,380.00
2019-06-20T03:45:02.483Z,392.00
2019-06-20T03:45:59.516Z,404.00
2019-06-20T03:46:59.496Z,412.00
2019-06-20T03:47:59.401Z,428.00
2019-06-20T03:48:59.453Z,440.00
2019-06-20T03:49:59.515Z,452.00
2019-06-20T03:50:59.402Z,456.00
2019-06-20T03:51:59.403Z,464.00
2019-06-20T03:52:59.396Z,468.00
2019-06-20T03:53:59.377Z,476.00
2019-06-20T03:54:59.383Z,484.00
2019-06-20T03:55:59.432Z,448.00
2019-06-20T03:56:59.355Z,496.00
2019-06-20T03:57:59.321Z,504.00
2019-06-20T03:58:59.359Z,500.00
2019-06-20T03:59:59.324Z,516.00
2019-06-20T04:00:59.323Z,516.00
2019-06-20T04:01:59.407Z,528.00
2019-06-20T04:02:59.311Z,532.00
2019-06-20T04:03:59.285Z,536.00
2019-06-20T04:04:59.235Z,552.00
2019-06-20T04:05:59.287Z,556.00
2019-06-20T04:06:59.252Z,572.00
2019-06-20T04:07:59.346Z,580.00
2019-06-20T04:08:59.225Z,580.00
2019-06-20T04:09:59.228Z,580.00
2019-06-20T04:10:59.229Z,596.00
2019-06-20T04:11:59.187Z,596.00
2019-06-20T04:12:59.206Z,604.00
2019-06-20T04:13:59.262Z,600.00
2019-06-20T04:14:59.150Z,604.00
2019-06-20T04:15:59.131Z,608.00
2019-06-20T04:16:59.157Z,612.00
2019-06-20T04:17:59.124Z,620.00
2019-06-20T04:18:59.137Z,624.00
2019-06-20T04:19:59.155Z,624.00
2019-06-20T04:20:59.131Z,636.00
2019-06-20T04:21:59.078Z,644.00
2019-06-20T04:22:59.089Z,644.00
2019-06-20T04:23:59.068Z,632.00
2019-06-20T04:24:59.025Z,656.00
2019-06-20T04:25:59.126Z,664.00
2019-06-20T04:26:59.045Z,668.00
2019-06-20T04:27:59.022Z,672.00
2019-06-20T04:28:59.027Z,676.00
2019-06-20T04:29:59.009Z,684.00
2019-06-20T04:30:59.009Z,684.00
2019-06-20T04:31:59.111Z,696.00
2019-06-20T04:32:58.979Z,700.00
2019-06-20T04:33:58.978Z,708.00
2019-06-20T04:34:58.984Z,716.00
2019-06-20T04:35:58.953Z,724.00
2019-06-20T04:36:58.949Z,728.00
2019-06-20T04:37:59.032Z,736.00
2019-06-20T04:38:58.918Z,748.00
2019-06-20T04:39:58.908Z,756.00
2019-06-20T04:40:58.850Z,760.00
2019-06-20T04:41:58.858Z,772.00
2019-06-20T04:42:58.895Z,776.00
2019-06-20T04:43:59.041Z,784.00
2019-06-20T04:44:58.851Z,796.00
2019-06-20T04:45:58.780Z,792.00
2019-06-20T04:46:58.802Z,800.00
2019-06-20T04:47:58.761Z,800.00
2019-06-20T04:48:58.802Z,804.00
2019-06-20T04:49:58.868Z,808.00
2019-06-20T04:50:58.766Z,816.00
2019-06-20T04:51:58.758Z,816.00
2019-06-20T04:52:58.722Z,820.00
2019-06-20T04:53:58.789Z,824.00
2019-06-20T04:54:58.746Z,828.00
2019-06-20T04:55:58.798Z,816.00
2019-06-20T04:56:58.718Z,824.00
2019-06-20T04:57:58.708Z,832.00
2019-06-20T04:58:58.673Z,840.00
2019-06-20T04:59:58.676Z,836.00
2019-06-20T05:00:58.697Z,836.00
2019-06-20T05:01:58.708Z,844.00
2019-06-20T05:02:58.641Z,840.00
2019-06-20T05:03:58.583Z,848.00
2019-06-20T05:04:58.644Z,856.00
2019-06-20T05:05:58.601Z,820.00
2019-06-20T05:06:58.609Z,848.00
2019-06-20T05:07:58.631Z,864.00
2019-06-20T05:08:58.581Z,872.00
2019-06-20T05:09:58.540Z,880.00
2019-06-20T05:10:58.572Z,876.00
2019-06-20T05:11:58.531Z,888.00
2019-06-20T05:12:58.553Z,876.00
2019-06-20T05:13:58.650Z,900.00
2019-06-20T05:14:58.500Z,896.00
2019-06-20T05:15:58.492Z,908.00
2019-06-20T05:16:58.515Z,904.00
2019-06-20T05:17:58.463Z,844.00
2019-06-20T05:18:58.442Z,912.00
2019-06-20T05:19:58.567Z,900.00
2019-06-20T05:20:58.438Z,932.00
2019-06-20T05:21:58.433Z,920.00
2019-06-20T05:22:58.451Z,952.00
2019-06-20T05:23:58.418Z,956.00
2019-06-20T05:24:58.391Z,952.00
2019-06-20T05:25:58.493Z,968.00
2019-06-20T05:26:58.351Z,948.00
2019-06-20T05:27:58.323Z,972.00
2019-06-20T05:28:58.372Z,980.00
2019-06-20T05:29:58.361Z,980.00
2019-06-20T05:30:58.348Z,988.00
2019-06-20T05:31:58.375Z,1000.00
2019-06-20T05:32:58.352Z,1004.00
2019-06-20T05:33:58.313Z,1008.00
2019-06-20T05:34:58.314Z,1020.00
2019-06-20T05:35:58.308Z,1024.00
2019-06-20T05:36:58.280Z,1028.00
2019-06-20T05:37:58.386Z,1028.00
2019-06-20T05:38:58.290Z,1032.00
2019-06-20T05:39:58.246Z,1036.00
2019-06-20T05:40:58.243Z,1032.00
2019-06-20T05:41:58.248Z,1048.00
2019-06-20T05:42:58.227Z,1040.00
2019-06-20T05:43:58.247Z,1060.00
2019-06-20T05:44:58.164Z,1064.00
2019-06-20T05:46:08.796Z,1068.00
2019-06-20T05:47:11.886Z,1112.00
2019-06-20T05:47:59.190Z,1084.00
2019-06-20T05:48:58.117Z,1080.00
2019-06-20T05:49:58.278Z,1088.00
2019-06-20T05:50:58.095Z,1088.00
2019-06-20T05:51:58.113Z,1104.00
2019-06-20T05:52:58.078Z,1116.00
2019-06-20T05:53:58.093Z,1136.00
2019-06-20T05:54:58.067Z,1128.00
2019-06-20T05:55:58.152Z,1140.00
2019-06-20T05:56:58.070Z,1148.00
2019-06-20T05:57:58.060Z,964.00
2019-06-20T05:58:58.040Z,1156.00
2019-06-20T05:59:58.040Z,1148.00
2019-06-20T06:00:58.053Z,1168.00
2019-06-20T06:01:58.088Z,1164.00
2019-06-20T06:02:58.306Z,1180.00
2019-06-20T06:03:58.010Z,1176.00
2019-06-20T06:04:57.984Z,1164.00
2019-06-20T06:05:57.992Z,1168.00
2019-06-20T06:06:58.006Z,1200.00
2019-06-20T06:07:58.478Z,1196.00
2019-06-20T06:08:57.886Z,1204.00
2019-06-20T06:09:57.914Z,1216.00
2019-06-20T06:10:57.872Z,1196.00
2019-06-20T06:11:57.982Z,1248.00
2019-06-20T06:12:57.842Z,1252.00
2019-06-20T06:13:58.015Z,1268.00
2019-06-20T06:15:00.874Z,1276.00
2019-06-20T06:15:57.951Z,1288.00
2019-06-20T06:16:57.871Z,1304.00
2019-06-20T06:17:57.856Z,1328.00
2019-06-20T06:18:57.837Z,1340.00
2019-06-20T06:19:57.901Z,1340.00
2019-06-20T06:20:57.793Z,1344.00
2019-06-20T06:21:57.818Z,1356.00
2019-06-20T06:22:57.765Z,1412.00
2019-06-20T06:23:57.772Z,1388.00
2019-06-20T06:24:57.770Z,1384.00
2019-06-20T06:25:57.882Z,1420.00
2019-06-20T06:26:59.894Z,1408.00
2019-06-20T06:27:57.749Z,1400.00
2019-06-20T06:28:57.743Z,1412.00
2019-06-20T06:29:57.712Z,1412.00
2019-06-20T06:30:57.661Z,1444.00
2019-06-20T06:31:57.793Z,1444.00
2019-06-20T06:32:57.674Z,1464.00
2019-06-20T06:33:57.675Z,1428.00
2019-06-20T06:34:57.662Z,1448.00
2019-06-20T06:35:57.660Z,1420.00
2019-06-20T06:36:57.655Z,1452.00
2019-06-20T06:37:57.732Z,1472.00
2019-06-20T06:38:57.602Z,1484.00
2019-06-20T06:39:57.593Z,1488.00
2019-06-20T06:40:57.582Z,1500.00
2019-06-20T06:41:57.548Z,1508.00
2019-06-20T06:42:57.591Z,1492.00
2019-06-20T06:43:57.655Z,1544.00
2019-06-20T06:44:57.553Z,1524.00
2019-06-20T06:45:57.550Z,1532.00
2019-06-20T06:46:59.583Z,1568.00
2019-06-20T06:47:57.514Z,1584.00
2019-06-20T06:48:57.529Z,1624.00
2019-06-20T06:49:57.616Z,1644.00
2019-06-20T06:50:57.443Z,1676.00
2019-06-20T06:51:57.433Z,1656.00
2019-06-20T06:52:57.461Z,1744.00
2019-06-20T06:53:57.478Z,1768.00
2019-06-20T06:54:57.434Z,1728.00
2019-06-20T06:55:57.532Z,1712.00
2019-06-20T06:56:57.456Z,1740.00
2019-06-20T06:57:57.413Z,1796.00
2019-06-20T06:58:57.402Z,1820.00
2019-06-20T06:59:57.361Z,1816.00
2019-06-20T07:00:57.415Z,1852.00
2019-06-20T07:01:57.469Z,1872.00
2019-06-20T07:02:57.370Z,1904.00
2019-06-20T07:03:57.335Z,1924.00
2019-06-20T07:04:57.337Z,1964.00
2019-06-20T07:05:57.280Z,2008.00
2019-06-20T07:06:57.335Z,2036.00
2019-06-20T07:07:57.395Z,2020.00
2019-06-20T07:08:57.261Z,2072.00
2019-06-20T07:09:57.322Z,2088.00
2019-06-20T07:10:57.284Z,2104.00
2019-06-20T07:11:57.262Z,2116.00
2019-06-20T07:12:57.256Z,2164.00
2019-06-20T07:13:57.294Z,2248.00
2019-06-20T07:14:57.194Z,2236.00
2019-06-20T07:15:57.228Z,2232.00
2019-06-20T07:17:00.473Z,2264.00
2019-06-20T07:17:57.194Z,2244.00
2019-06-20T07:18:57.143Z,2252.00
2019-06-20T07:19:57.258Z,2240.00
2019-06-20T07:20:57.190Z,2192.00
2019-06-20T07:21:57.131Z,2132.00
2019-06-20T07:22:57.170Z,2152.00
2019-06-20T07:23:57.112Z,2268.00
2019-06-20T07:24:57.113Z,2332.00
2019-06-20T07:25:57.207Z,2356.00
2019-06-20T07:26:57.107Z,2384.00
2019-06-20T07:27:57.080Z,2412.00
2019-06-20T07:28:57.100Z,2416.00
2019-06-20T07:29:57.081Z,2452.00
2019-06-20T07:30:57.051Z,2492.00
2019-06-20T07:31:57.122Z,2456.00
2019-06-20T07:32:57.037Z,2472.00
2019-06-20T07:33:56.984Z,2456.00
2019-06-20T07:34:57.024Z,2472.00
2019-06-20T07:35:57.003Z,2448.00
2019-06-20T07:36:56.993Z,2472.00
2019-06-20T07:37:57.106Z,2464.00
2019-06-20T07:38:56.989Z,2436.00
2019-06-20T07:39:56.954Z,2404.00
2019-06-20T07:40:56.916Z,2356.00
2019-06-20T07:41:56.935Z,2320.00
2019-06-20T07:42:56.923Z,2364.00
2019-06-20T07:43:57.034Z,2404.00
2019-06-20T07:44:56.923Z,2344.00
2019-06-20T07:46:02.507Z,2400.00
2019-06-20T07:46:57.882Z,2512.00
2019-06-20T07:47:56.912Z,2552.00
2019-06-20T07:48:56.888Z,2592.00
2019-06-20T07:49:56.966Z,2644.00
2019-06-20T07:50:56.857Z,2716.00
2019-06-20T07:51:56.854Z,2712.00
2019-06-20T07:53:01.849Z,2852.00
2019-06-20T07:53:57.776Z,2892.00
2019-06-20T07:54:56.805Z,3008.00
2019-06-20T07:55:56.945Z,3108.00
2019-06-20T07:56:56.780Z,3256.00
2019-06-20T07:57:56.788Z,3428.00
2019-06-20T07:58:56.795Z,3580.00
2019-06-20T07:59:56.818Z,3724.00
2019-06-20T08:00:56.766Z,3912.00
2019-06-20T08:01:56.846Z,4132.00
2019-06-20T08:02:56.730Z,4416.00
2019-06-20T08:03:56.697Z,4620.00
2019-06-20T08:04:56.699Z,4892.00
2019-06-20T08:05:56.922Z,5112.00
2019-06-20T08:06:56.705Z,5336.00
2019-06-20T08:07:56.784Z,5568.00
2019-06-20T08:08:56.682Z,5840.00
2019-06-20T08:09:56.615Z,5932.00
2019-06-20T08:10:56.629Z,6192.00
2019-06-20T08:11:56.668Z,6188.00
2019-06-20T08:12:56.617Z,6496.00
2019-06-20T08:13:56.763Z,6532.00
2019-06-20T08:14:56.594Z,6684.00
2019-06-20T08:15:56.579Z,6768.00
2019-06-20T08:16:56.610Z,6892.00
2019-06-20T08:17:56.558Z,7056.00
2019-06-20T08:18:56.584Z,7160.00
2019-06-20T08:19:56.710Z,6916.00
2019-06-20T08:20:56.551Z,6372.00
2019-06-20T08:21:56.494Z,7184.00
2019-06-20T08:22:56.554Z,7180.00
2019-06-20T08:23:56.503Z,7436.00
2019-06-20T08:24:56.768Z,7592.00
2019-06-20T08:25:57.555Z,7904.00
2019-06-20T08:26:57.549Z,7816.00
2019-06-20T08:27:57.851Z,8020.00
2019-06-20T08:29:10.253Z,8628.00
2019-06-20T08:29:57.881Z,8664.00
2019-06-20T08:30:57.735Z,8560.00
2019-06-20T08:31:57.931Z,8716.00
2019-06-20T08:32:59.116Z,8612.00
2019-06-20T08:33:57.696Z,8720.00
2019-06-20T08:34:56.611Z,8872.00
2019-06-20T08:35:57.548Z,9980.00
2019-06-20T08:36:57.808Z,12476.00
2019-06-20T08:37:57.835Z,12660.00
2019-06-20T08:38:57.428Z,10336.00
2019-06-20T08:39:57.337Z,9992.00
2019-06-20T08:40:57.020Z,9648.00
2019-06-20T08:41:57.170Z,9024.00
2019-06-20T08:42:57.121Z,9448.00
2019-06-20T08:43:57.090Z,11160.00
2019-06-20T08:44:57.600Z,9732.00
2019-06-20T08:45:57.567Z,9036.00
2019-06-20T08:46:58.365Z,8076.00
2019-06-20T08:47:56.999Z,7524.00
2019-06-20T08:48:56.637Z,8584.00
2019-06-20T08:49:56.785Z,9200.00
2019-06-20T08:50:58.215Z,9848.00
2019-06-20T08:51:57.329Z,10220.00
2019-06-20T08:52:57.631Z,9592.00
2019-06-20T08:53:57.440Z,9244.00
2019-06-20T08:54:56.653Z,9964.00
2019-06-20T08:55:57.759Z,10044.00
2019-06-20T08:56:57.356Z,10380.00
2019-06-20T08:57:57.573Z,10608.00
2019-06-20T08:58:57.355Z,10620.00
2019-06-20T08:59:57.303Z,10660.00
2019-06-20T09:00:58.014Z,10900.00
2019-06-20T09:01:58.110Z,11048.00
2019-06-20T09:02:56.929Z,11308.00
2019-06-20T09:03:56.996Z,12844.00
2019-06-20T09:04:56.513Z,14816.00
2019-06-20T09:05:57.126Z,19072.00
2019-06-20T09:06:57.513Z,19776.00
2019-06-20T09:07:57.198Z,20448.00
2019-06-20T09:08:57.050Z,20288.00
2019-06-20T09:09:56.041Z,20736.00
2019-06-20T09:10:57.371Z,21024.00
2019-06-20T09:11:56.542Z,20864.00
2019-06-20T09:12:57.040Z,20288.00
2019-06-20T09:13:57.143Z,20640.00
2019-06-20T09:14:56.902Z,21184.00
2019-06-20T09:15:56.775Z,21472.00
2019-06-20T09:16:56.488Z,21760.00
2019-06-20T09:17:56.816Z,21728.00
2019-06-20T09:18:56.736Z,21888.00
2019-06-20T09:19:56.036Z,21248.00
2019-06-20T09:20:56.029Z,21312.00
2019-06-20T09:21:55.953Z,21504.00
2019-06-20T09:22:56.759Z,21568.00
2019-06-20T09:23:55.911Z,21760.00
2019-06-20T09:24:56.809Z,22336.00
2019-06-20T09:25:56.051Z,22304.00
2019-06-20T09:26:57.023Z,21984.00
2019-06-20T09:27:56.010Z,22080.00
2019-06-20T09:28:57.104Z,22528.00
2019-06-20T09:29:56.263Z,22880.00
2019-06-20T09:30:57.010Z,23200.00
2019-06-20T09:31:55.921Z,23808.00
2019-06-20T09:32:55.792Z,23872.00
2019-06-20T09:33:55.863Z,22880.00
2019-06-20T09:34:56.562Z,22688.00
2019-06-20T09:35:55.791Z,22880.00
2019-06-20T09:36:55.780Z,23008.00
2019-06-20T09:37:57.036Z,22464.00
2019-06-20T09:38:57.758Z,21952.00
2019-06-20T09:39:57.149Z,22176.00
2019-06-20T09:40:56.821Z,23232.00
2019-06-20T09:41:56.564Z,23968.00
2019-06-20T09:42:56.456Z,24288.00
2019-06-20T09:43:56.435Z,23584.00
2019-06-20T09:44:56.399Z,23456.00
2019-06-20T09:45:56.115Z,17856.00
2019-06-20T09:46:56.366Z,23680.00
2019-06-20T09:47:56.023Z,17760.00
2019-06-20T09:48:55.647Z,24000.00
2019-06-20T09:49:57.679Z,22560.00
2019-06-20T09:50:56.928Z,16256.00
2019-06-20T09:51:56.634Z,17216.00
2019-06-20T09:52:56.589Z,16128.00
2019-06-20T09:53:56.345Z,16128.00
2019-06-20T09:54:56.120Z,16928.00
2019-06-20T09:55:55.740Z,22816.00
2019-06-20T09:56:56.947Z,21024.00
2019-06-20T09:57:55.948Z,23136.00
2019-06-20T09:58:55.567Z,23296.00
2019-06-20T10:00:05.864Z,23904.00
2019-06-20T10:00:57.448Z,24512.00
2019-06-20T10:01:56.597Z,25376.00
2019-06-20T10:02:56.314Z,26240.00
2019-06-20T10:03:56.721Z,27680.00
2019-06-20T10:04:56.699Z,27840.00
2019-06-20T10:05:56.699Z,27840.00
2019-06-20T10:06:56.639Z,27328.00
2019-06-20T10:07:56.640Z,26720.00
2019-06-20T10:08:56.520Z,25504.00
2019-06-20T10:09:56.335Z,23776.00
2019-06-20T10:10:56.252Z,24448.00
2019-06-20T10:11:56.128Z,25600.00
2019-06-20T10:12:55.872Z,26400.00
2019-06-20T10:13:56.054Z,28384.00
2019-06-20T10:14:56.161Z,29504.00
2019-06-20T10:15:55.706Z,29440.00
2019-06-20T10:16:56.792Z,28288.00
2019-06-20T10:17:55.350Z,26848.00
2019-06-20T10:18:56.480Z,26464.00
2019-06-20T10:19:56.334Z,26048.00
2019-06-20T10:20:55.305Z,24384.00
2019-06-20T10:21:56.039Z,13760.00
2019-06-20T10:22:55.283Z,10196.00
2019-06-20T10:23:56.026Z,9956.00
2019-06-20T10:24:55.377Z,9700.00
2019-06-20T10:25:55.291Z,9580.00
2019-06-20T10:26:55.279Z,9484.00
2019-06-20T10:27:55.258Z,9204.00
2019-06-20T10:28:55.253Z,9044.00
2019-06-20T10:29:55.271Z,8960.00
2019-06-20T10:30:55.372Z,8760.00
2019-06-20T10:31:55.242Z,8764.00
2019-06-20T10:32:55.201Z,8572.00
2019-06-20T10:33:55.213Z,8660.00
2019-06-20T10:34:55.196Z,8692.00
2019-06-20T10:35:55.242Z,8908.00
2019-06-20T10:36:56.968Z,12992.00
2019-06-20T10:37:56.960Z,30592.00
2019-06-20T10:38:56.843Z,43520.00
2019-06-20T10:39:56.782Z,42784.00
2019-06-20T10:40:58.633Z,41344.00
2019-06-20T10:41:55.361Z,38272.00
2019-06-20T10:42:56.475Z,32032.00
2019-06-20T10:43:56.343Z,28896.00
2019-06-20T10:44:56.197Z,25856.00
2019-06-20T10:45:55.085Z,24000.00
2019-06-20T10:46:55.073Z,22816.00
2019-06-20T10:47:55.065Z,21856.00
2019-06-20T10:48:55.133Z,21568.00
2019-06-20T10:49:55.048Z,20128.00
2019-06-20T10:50:55.041Z,18528.00
2019-06-20T10:51:54.988Z,17600.00
2019-06-20T10:52:55.003Z,16320.00
2019-06-20T10:53:54.992Z,14368.00
2019-06-20T10:54:55.080Z,11820.00
2019-06-20T10:55:54.993Z,9320.00
2019-06-20T10:56:54.983Z,8520.00
2019-06-20T10:57:54.917Z,8152.00
2019-06-20T10:58:54.968Z,7952.00
2019-06-20T10:59:54.955Z,7792.00
2019-06-20T11:00:54.979Z,7568.00
2019-06-20T11:01:54.926Z,7452.00
2019-06-20T11:02:54.890Z,7152.00
2019-06-20T11:03:54.910Z,6984.00
2019-06-20T11:04:54.879Z,6940.00
2019-06-20T11:05:54.881Z,6928.00
2019-06-20T11:06:54.971Z,6880.00
2019-06-20T11:07:54.885Z,6876.00
2019-06-20T11:08:54.838Z,6840.00
2019-06-20T11:09:54.835Z,6932.00
2019-06-20T11:10:54.824Z,6816.00
2019-06-20T11:11:54.827Z,6784.00
2019-06-20T11:12:56.312Z,6752.00
2019-06-20T11:13:54.840Z,6816.00
2019-06-20T11:14:54.785Z,6924.00
2019-06-20T11:15:54.738Z,6844.00
2019-06-20T11:16:54.780Z,7004.00
2019-06-20T11:17:56.651Z,7056.00
2019-06-20T11:18:55.138Z,6888.00
2019-06-20T11:19:54.753Z,6844.00
2019-06-20T11:20:54.741Z,6772.00
2019-06-20T11:21:54.731Z,6856.00
2019-06-20T11:22:54.743Z,6780.00
2019-06-20T11:23:54.725Z,6920.00
2019-06-20T11:24:54.772Z,6732.00
2019-06-20T11:25:54.639Z,6736.00
2019-06-20T11:26:54.622Z,6812.00
2019-06-20T11:27:54.661Z,6608.00
2019-06-20T11:28:55.836Z,6768.00
2019-06-20T11:29:54.673Z,6816.00
2019-06-20T11:31:00.108Z,6680.00
2019-06-20T11:31:55.601Z,6588.00
2019-06-20T11:32:54.650Z,6948.00
2019-06-20T11:33:54.649Z,7016.00
2019-06-20T11:34:54.570Z,7012.00
2019-06-20T11:35:54.559Z,7028.00
2019-06-20T11:36:54.649Z,7068.00
2019-06-20T11:37:54.564Z,7068.00
2019-06-20T11:38:54.541Z,6904.00
2019-06-20T11:39:54.593Z,6764.00
2019-06-20T11:40:54.533Z,6672.00
2019-06-20T11:41:54.523Z,6544.00
2019-06-20T11:42:54.646Z,6432.00
2019-06-20T11:43:54.503Z,6212.00
2019-06-20T11:44:54.492Z,6096.00
2019-06-20T11:45:54.490Z,5984.00
2019-06-20T11:46:54.457Z,5956.00
2019-06-20T11:47:54.455Z,5944.00
2019-06-20T11:48:54.536Z,5936.00
2019-06-20T11:49:54.459Z,5884.00
2019-06-20T11:50:54.448Z,5796.00
2019-06-20T11:51:54.404Z,5704.00
2019-06-20T11:52:54.418Z,5440.00
2019-06-20T11:53:54.422Z,5384.00
2019-06-20T11:54:54.459Z,5328.00
2019-06-20T11:55:54.359Z,5336.00
2019-06-20T11:56:54.382Z,5164.00
2019-06-20T11:57:54.345Z,5232.00
2019-06-20T11:58:54.326Z,5200.00
2019-06-20T11:59:54.341Z,5120.00
2019-06-20T12:01:03.551Z,5060.00
2019-06-20T12:01:55.319Z,5044.00
2019-06-20T12:02:54.602Z,5088.00
2019-06-20T12:03:54.297Z,4984.00
2019-06-20T12:04:54.278Z,5020.00
2019-06-20T12:05:54.277Z,4980.00
2019-06-20T12:06:54.349Z,5032.00
2019-06-20T12:07:54.258Z,4976.00
2019-06-20T12:08:54.255Z,4856.00
2019-06-20T12:09:54.244Z,4864.00
2019-06-20T12:10:54.211Z,4836.00
2019-06-20T12:11:54.198Z,4568.00
2019-06-20T12:12:54.359Z,4760.00
2019-06-20T12:13:54.197Z,4704.00
2019-06-20T12:14:54.203Z,4704.00
2019-06-20T12:15:54.175Z,4676.00
2019-06-20T12:16:54.164Z,4804.00
2019-06-20T12:17:54.098Z,4704.00
2019-06-20T12:18:54.228Z,4700.00
2019-06-20T12:19:54.140Z,4608.00
2019-06-20T12:20:54.131Z,4668.00
2019-06-20T12:21:54.134Z,4584.00
2019-06-20T12:22:54.056Z,4600.00